Time;durP1;ratioP1;P1;durP2;ratioP2;P2;SDS_P1;SDS_P2;PMS_P1;PMS_P2;Temp;Humidity;BMP_temperature;BMP_pressure;BME280_temperature;BME280_humidity;BME280_pressure;Samples;Min_cycle;Max_cycle;Signal;HPM_P1;HPM_P2
2023/08/23 20:12:25;;;;;;;6.07;4.90;;;;;;;23.83;55.63;100912.03;4634836;27;20232;-65
2023/08/23 20:14:36;;;;;;;5.22;4.72;;;;;;;23.89;55.64;100934.41;4634790;27;20742;-64
2023/08/23 20:16:46;;;;;;;5.22;4.72;;;;;;;23.86;55.60;100926.53;4644779;27;20046;-64
2023/08/23 20:19:00;;;;;;;3.80;3.40;;;;;;;23.91;55.70;100929.13;4625461;27;20038;-64
2023/08/23 20:21:10;;;;;;;5.13;4.60;;;;;;;23.90;55.51;100921.66;4618211;27;21162;-64
2023/08/23 20:23:21;;;;;;;4.65;4.15;;;;;;;23.87;55.56;100925.31;4617996;27;20034;-64
2023/08/23 20:25:31;;;;;;;4.30;3.90;;;;;;;23.90;55.17;100926.56;4618575;27;20562;-64
2023/08/23 20:27:42;;;;;;;5.60;4.00;;;;;;;23.88;55.06;100929.84;4618961;27;20050;-64
2023/08/23 20:29:52;;;;;;;5.45;3.70;;;;;;;23.91;54.96;100934.03;4618527;27;20050;-64
2023/08/23 20:32:03;;;;;;;4.13;3.50;;;;;;;23.89;55.11;100919.16;4618649;27;20492;-64
2023/08/23 20:34:13;;;;;;;4.03;3.30;;;;;;;23.83;54.74;100903.41;4617406;27;20093;-64
2023/08/23 20:36:25;;;;;;;4.32;3.20;;;;;;;23.86;54.98;100911.28;4618450;27;20049;-64
2023/08/23 20:38:36;;;;;;;3.50;3.13;;;;;;;23.87;54.92;100915.81;4617246;27;20035;-64
2023/08/23 20:40:49;;;;;;;3.60;3.28;;;;;;;23.91;54.82;100920.47;4617355;27;20491;-64
2023/08/23 20:42:59;;;;;;;3.28;2.97;;;;;;;23.89;54.40;100914.25;4617275;27;20055;-65
2023/08/23 20:45:11;;;;;;;3.90;3.50;;;;;;;23.85;54.86;100910.44;4618320;27;20118;-65
2023/08/23 20:47:22;;;;;;;3.15;2.92;;;;;;;23.72;54.96;100874.38;4622735;27;20015;-64
2023/08/23 20:49:33;;;;;;;3.83;3.45;;;;;;;23.87;54.82;100898.53;4617140;27;20509;-64
2023/08/23 20:51:44;;;;;;;3.40;3.10;;;;;;;23.89;54.88;100908.47;4616582;27;20035;-64
2023/08/23 20:53:55;;;;;;;3.47;3.17;;;;;;;23.86;54.88;100903.47;4618585;27;20536;-64
2023/08/23 20:56:06;;;;;;;3.63;3.33;;;;;;;23.85;54.50;100898.91;4618488;27;20617;-64
2023/08/23 20:58:17;;;;;;;3.40;3.10;;;;;;;23.93;54.88;100915.13;4624780;27;20089;-65
2023/08/23 21:00:29;;;;;;;3.72;3.30;;;;;;;23.90;55.02;100912.16;4623066;27;20594;-65
2023/08/23 21:02:39;;;;;;;4.57;3.55;;;;;;;23.91;54.97;100905.19;4617445;27;20919;-64
2023/08/23 21:04:49;;;;;;;3.67;3.38;;;;;;;23.88;54.90;100900.22;4618718;27;20096;-66
2023/08/23 21:07:00;;;;;;;3.38;3.08;;;;;;;23.90;55.08;100898.59;4609426;27;20031;-65
2023/08/23 21:09:10;;;;;;;4.65;3.83;;;;;;;23.90;55.11;100895.72;4618163;27;20458;-65
2023/08/23 21:11:21;;;;;;;4.05;3.60;;;;;;;24.04;55.30;100913.31;4616467;27;20140;-65
2023/08/23 21:13:31;;;;;;;4.22;3.70;;;;;;;24.00;54.91;100888.50;4617602;27;20421;-65
2023/08/23 21:15:44;;;;;;;3.70;3.40;;;;;;;24.10;54.61;100899.41;4616798;27;20435;-65
2023/08/23 21:17:55;;;;;;;3.90;3.40;;;;;;;24.06;54.60;100890.69;4617539;27;20130;-65
2023/08/23 21:20:06;;;;;;;2.75;2.50;;;;;;;24.07;54.56;100891.53;4617734;27;20169;-65
2023/08/23 21:22:16;;;;;;;2.38;2.17;;;;;;;24.16;54.63;100900.75;4612409;27;20130;-65
2023/08/23 21:24:27;;;;;;;3.33;2.33;;;;;;;24.13;54.87;100895.75;4605294;27;20520;-69
2023/08/23 21:26:37;;;;;;;3.55;2.13;;;;;;;24.13;54.86;100908.16;4611304;27;20119;-65
2023/08/23 21:28:47;;;;;;;3.08;2.20;;;;;;;24.09;54.78;100889.94;4603239;27;20055;-65
2023/08/23 21:31:03;;;;;;;2.72;2.15;;;;;;;24.15;55.04;100902.00;4603126;27;20117;-65
2023/08/23 21:33:15;;;;;;;2.90;2.50;;;;;;;24.09;55.04;100895.69;4609123;27;20035;-65
2023/08/23 21:35:25;;;;;;;3.17;2.42;;;;;;;24.00;55.34;100877.81;4602607;27;20292;-67
2023/08/23 21:37:36;;;;;;;3.38;2.30;;;;;;;24.15;54.99;100902.00;4604338;27;20038;-65
2023/08/23 21:39:46;;;;;;;3.92;2.70;;;;;;;24.18;55.13;100899.16;4604912;27;20031;-65
2023/08/23 21:41:57;;;;;;;3.05;2.50;;;;;;;24.16;55.03;100895.00;4605178;27;20039;-65
2023/08/23 21:44:08;;;;;;;3.95;2.28;;;;;;;24.17;55.33;100906.16;4603913;27;20795;-65
2023/08/23 21:46:18;;;;;;;3.17;2.80;;;;;;;24.15;55.43;100894.16;4604049;27;20067;-65
2023/08/23 21:48:29;;;;;;;3.00;2.70;;;;;;;24.17;55.43;100891.72;4612729;27;20110;-65
2023/08/23 21:50:39;;;;;;;3.10;2.50;;;;;;;24.18;55.19;100899.16;4603726;27;20041;-65
2023/08/23 21:52:50;;;;;;;2.60;2.40;;;;;;;24.17;55.41;100897.50;4603013;27;20110;-65
2023/08/23 21:55:00;;;;;;;3.85;2.67;;;;;;;24.21;55.23;100904.19;4604760;27;20019;-65
2023/08/23 21:57:11;;;;;;;3.85;2.72;;;;;;;24.17;55.47;100888.00;4606750;27;20039;-65
2023/08/23 21:59:21;;;;;;;4.18;2.63;;;;;;;24.21;55.31;100903.34;4605052;27;20032;-65
2023/08/23 22:01:32;;;;;;;3.60;2.70;;;;;;;24.21;55.30;100892.63;4612699;27;20035;-65
2023/08/23 22:03:42;;;;;;;2.85;2.50;;;;;;;24.22;55.37;100894.28;4603909;27;20019;-65
2023/08/23 22:05:52;;;;;;;3.08;2.78;;;;;;;24.21;55.32;100891.78;4603803;27;20039;-65
2023/08/23 22:08:03;;;;;;;3.10;2.50;;;;;;;24.25;55.30;100886.91;4604281;27;20049;-65
2023/08/23 22:10:14;;;;;;;2.83;2.53;;;;;;;24.07;55.50;100860.63;4607087;27;20505;-65
2023/08/23 22:12:24;;;;;;;3.20;2.45;;;;;;;24.21;55.26;100874.50;4604391;27;20043;-65
2023/08/23 22:14:34;;;;;;;3.83;2.78;;;;;;;24.23;55.56;100877.81;4603816;27;20112;-65
2023/08/23 22:16:45;;;;;;;3.03;2.72;;;;;;;24.17;55.30;100864.91;4603129;27;20060;-65
2023/08/23 22:18:55;;;;;;;3.05;2.10;;;;;;;24.14;56.39;100878.06;4604206;27;20039;-65
2023/08/23 22:21:08;;;;;;;2.60;2.40;;;;;;;24.07;54.83;100877.13;4604226;27;20567;-65
2023/08/23 22:23:21;;;;;;;2.50;2.30;;;;;;;23.98;54.87;100871.59;4604509;27;20567;-65
2023/08/23 22:25:33;;;;;;;3.00;2.58;;;;;;;23.96;54.38;100870.28;4604487;27;20032;-65
2023/08/23 22:27:44;;;;;;;4.03;2.50;;;;;;;24.00;54.86;100872.06;4604269;27;20175;-65
2023/08/23 22:29:54;;;;;;;2.70;2.50;;;;;;;23.93;54.68;100868.19;4601865;27;20088;-65
2023/08/23 22:32:05;;;;;;;2.75;2.53;;;;;;;23.95;54.69;100875.22;4604322;27;20462;-65
2023/08/23 22:34:15;;;;;;;2.70;2.50;;;;;;;23.88;54.52;100872.19;4601047;27;20040;-65
2023/08/23 22:36:26;;;;;;;3.45;2.47;;;;;;;23.92;54.40;100876.00;4603963;27;20078;-65
2023/08/23 22:38:36;;;;;;;2.72;2.53;;;;;;;23.94;54.39;100879.34;4603213;27;20044;-65
2023/08/23 22:40:47;;;;;;;2.70;2.50;;;;;;;23.91;54.58;100877.22;4603901;27;20051;-65
2023/08/23 22:42:57;;;;;;;2.72;2.53;;;;;;;23.86;54.24;100876.69;4594147;27;20614;-65
2023/08/23 22:45:08;;;;;;;2.97;2.70;;;;;;;23.91;54.32;100891.63;4603896;27;20031;-65
2023/08/23 22:47:18;;;;;;;2.65;2.45;;;;;;;23.90;54.20;100892.81;4604590;27;20062;-65
2023/08/23 22:49:29;;;;;;;2.63;2.42;;;;;;;23.84;54.08;100882.84;4603652;27;20097;-65
2023/08/23 22:51:39;;;;;;;2.30;2.10;;;;;;;23.87;54.29;100890.72;4604276;27;20066;-65
2023/08/23 22:53:50;;;;;;;2.63;2.20;;;;;;;23.86;54.07;100891.09;4605098;27;20031;-66
2023/08/23 22:56:02;;;;;;;2.40;2.20;;;;;;;23.88;53.94;100900.22;4605802;27;20781;-65
2023/08/23 22:58:13;;;;;;;2.40;2.20;;;;;;;23.88;54.00;100895.25;4606738;27;20035;-65
2023/08/23 23:00:23;;;;;;;2.65;2.45;;;;;;;23.89;53.83;100896.94;4604951;27;20495;-65
2023/08/23 23:02:34;;;;;;;2.40;2.20;;;;;;;23.82;53.85;100890.22;4605352;27;20134;-65
2023/08/23 23:04:45;;;;;;;2.50;2.30;;;;;;;23.85;53.57;100892.31;4603425;27;20045;-65
2023/08/23 23:06:55;;;;;;;2.50;2.30;;;;;;;23.86;53.59;100899.75;4605023;27;20031;-65
2023/08/23 23:09:05;;;;;;;2.50;2.30;;;;;;;23.89;53.60;100902.72;4605872;27;20628;-65
2023/08/23 23:11:16;;;;;;;2.58;2.38;;;;;;;23.86;53.34;100886.19;4604205;27;20092;-65
2023/08/23 23:13:26;;;;;;;2.47;2.28;;;;;;;23.85;53.36;100881.59;4605211;27;20036;-65
2023/08/23 23:15:37;;;;;;;2.55;2.25;;;;;;;23.86;53.78;100877.53;4604966;27;20405;-65
2023/08/23 23:17:47;;;;;;;2.47;2.28;;;;;;;23.84;53.49;100873.34;4604506;27;20478;-65
2023/08/23 23:19:58;;;;;;;2.67;2.47;;;;;;;23.88;53.77;100882.91;4604675;27;20023;-65
2023/08/23 23:22:08;;;;;;;2.90;2.70;;;;;;;23.86;53.32;100873.81;4603628;27;20031;-65
2023/08/23 23:24:19;;;;;;;2.63;2.42;;;;;;;23.83;53.87;100869.66;4604682;27;20427;-65
2023/08/23 23:26:29;;;;;;;2.58;2.38;;;;;;;23.86;53.94;100877.53;4605637;27;20058;-65
2023/08/23 23:28:39;;;;;;;2.60;2.40;;;;;;;23.87;54.21;100875.47;4605371;27;20035;-65
2023/08/23 23:30:50;;;;;;;2.50;2.30;;;;;;;23.85;54.05;100869.25;4604515;27;20044;-65
2023/08/23 23:33:01;;;;;;;2.80;2.60;;;;;;;23.82;54.00;100862.19;4613787;27;20027;-65
2023/08/23 23:35:12;;;;;;;2.65;2.45;;;;;;;23.81;53.90;100863.44;4603450;27;20121;-65
2023/08/23 23:37:22;;;;;;;2.70;2.50;;;;;;;23.81;53.79;100866.31;4603767;27;20079;-65
2023/08/23 23:39:33;;;;;;;2.78;2.50;;;;;;;23.84;53.76;100864.69;4605197;27;20113;-65
2023/08/23 23:41:43;;;;;;;2.90;2.60;;;;;;;23.84;53.94;100870.47;4603862;27;20122;-65
2023/08/23 23:43:56;;;;;;;2.67;2.47;;;;;;;23.85;54.00;100872.16;4604050;27;20036;-65
2023/08/23 23:46:07;;;;;;;3.25;2.70;;;;;;;23.85;54.27;100875.84;4603708;27;20058;-65
2023/08/23 23:48:17;;;;;;;2.75;2.50;;;;;;;23.84;53.82;100876.22;4605047;27;20523;-65
2023/08/23 23:50:27;;;;;;;2.60;2.40;;;;;;;23.84;53.90;100870.47;4602175;27;20034;-65
2023/08/23 23:52:38;;;;;;;2.65;2.45;;;;;;;23.78;53.64;100861.31;4619034;27;20031;-65
2023/08/23 23:54:48;;;;;;;2.58;2.38;;;;;;;23.84;53.43;100870.47;4605066;27;20023;-65
2023/08/23 23:56:59;;;;;;;2.67;2.47;;;;;;;23.82;53.04;100867.97;4603871;27;20084;-65
2023/08/23 23:59:11;;;;;;;2.97;2.40;;;;;;;23.84;53.30;100861.81;4604893;27;20031;-65
